createdAt,value
2019-05-06T00:00:20.570Z,99683.09
2019-05-06T00:02:26.956Z,99681.67
2019-05-06T00:04:34.109Z,99674.07
2019-05-06T00:06:43.883Z,99678.77
2019-05-06T00:08:49.836Z,99676.85
2019-05-06T00:10:56.315Z,99674.52
2019-05-06T00:13:04.610Z,99678.33
2019-05-06T00:15:11.214Z,99682.56
2019-05-06T00:17:17.751Z,99679.44
2019-05-06T00:19:24.680Z,99678.44
2019-05-06T00:21:32.157Z,99678.81
2019-05-06T00:23:45.970Z,99670.41
2019-05-06T00:25:53.546Z,99677.73
2019-05-06T00:28:19.552Z,99669.80
2019-05-06T00:30:26.004Z,99670.98
2019-05-06T00:32:34.670Z,99668.75
2019-05-06T00:34:40.457Z,99679.09
2019-05-06T00:36:46.915Z,99675.13
2019-05-06T00:38:54.949Z,99663.74
2019-05-06T00:41:04.026Z,99671.16
2019-05-06T00:43:11.579Z,99670.69
2019-05-06T00:45:18.036Z,99668.50
2019-05-06T00:47:25.235Z,99660.23
2019-05-06T00:49:31.650Z,99656.33
2019-05-06T00:51:38.039Z,99661.12
2019-05-06T00:53:49.932Z,99659.83
2019-05-06T00:55:56.333Z,99658.94
2019-05-06T00:58:04.061Z,99659.77
2019-05-06T01:00:13.466Z,99662.31
2019-05-06T01:02:19.507Z,99661.43
2019-05-06T01:04:25.877Z,99660.08
2019-05-06T01:06:34.481Z,99669.63
2019-05-06T01:08:40.628Z,99663.84
2019-05-06T01:10:47.756Z,99665.91
2019-05-06T01:13:04.082Z,99670.67
2019-05-06T01:15:23.789Z,99673.23
2019-05-06T01:17:34.678Z,99673.13
2019-05-06T01:19:41.312Z,99666.03
2019-05-06T01:21:47.861Z,99669.42
2019-05-06T01:23:54.609Z,99670.14
2019-05-06T01:26:01.058Z,99665.64
2019-05-06T01:28:07.474Z,99670.27
2019-05-06T01:30:15.536Z,99664.48
2019-05-06T01:32:23.637Z,99675.70
2019-05-06T01:34:30.220Z,99669.06
2019-05-06T01:36:36.595Z,99678.14
2019-05-06T01:38:44.758Z,99675.05
2019-05-06T01:41:03.874Z,99667.58
2019-05-06T01:43:14.539Z,99670.08
2019-05-06T01:45:21.105Z,99666.53
2019-05-06T01:47:27.923Z,99658.60
2019-05-06T01:49:34.290Z,99664.16
2019-05-06T01:51:40.665Z,99657.95
2019-05-06T01:53:47.314Z,99656.54
2019-05-06T01:55:54.596Z,99661.23
2019-05-06T01:58:01.066Z,99661.64
2019-05-06T02:00:09.348Z,99660.76
2019-05-06T02:02:15.865Z,99663.78
2019-05-06T02:04:24.296Z,99667.28
2019-05-06T02:06:30.505Z,99669.41
2019-05-06T02:08:36.896Z,99665.48
2019-05-06T02:10:43.606Z,99666.73
2019-05-06T02:12:50.260Z,99669.28
2019-05-06T02:14:56.646Z,99675.33
2019-05-06T02:17:03.632Z,99671.89
2019-05-06T02:19:10.366Z,99681.48
2019-05-06T02:21:28.775Z,99668.39
2019-05-06T02:23:39.556Z,99677.10
2019-05-06T02:25:47.659Z,99677.94
2019-05-06T02:27:54.239Z,99678.35
2019-05-06T02:30:05.474Z,99674.80
2019-05-06T02:32:25.252Z,99681.79
2019-05-06T02:34:36.458Z,99679.19
2019-05-06T02:36:45.401Z,99672.25
2019-05-06T02:38:54.790Z,99675.74
2019-05-06T02:40:58.895Z,99669.12
2019-05-06T02:43:05.340Z,99667.76
2019-05-06T02:45:12.726Z,99669.42
2019-05-06T02:47:23.072Z,99671.12
2019-05-06T02:49:36.478Z,99665.44
2019-05-06T02:51:44.202Z,99663.72
2019-05-06T02:53:53.792Z,99667.68
2019-05-06T02:55:59.062Z,99660.72
2019-05-06T02:58:06.529Z,99668.59
2019-05-06T03:00:18.158Z,99665.56
2019-05-06T03:02:37.963Z,99662.55
2019-05-06T03:04:33.384Z,99660.41
2019-05-06T03:06:40.076Z,99661.35
2019-05-06T03:08:46.438Z,99661.88
2019-05-06T03:10:53.570Z,99658.91
2019-05-06T03:13:02.886Z,99661.57
2019-05-06T03:15:08.749Z,99660.81
2019-05-06T03:17:15.146Z,99660.45
2019-05-06T03:19:24.072Z,99662.39
2019-05-06T03:21:46.741Z,99655.99
2019-05-06T03:23:54.784Z,99657.98
2019-05-06T03:26:03.751Z,99661.17
2019-05-06T03:28:09.648Z,99658.27
2019-05-06T03:30:17.145Z,99663.28
2019-05-06T03:32:30.341Z,99659.95
2019-05-06T03:34:55.259Z,99662.77
2019-05-06T03:36:47.390Z,99655.69
2019-05-06T03:38:48.310Z,99657.98
2019-05-06T03:40:54.689Z,99646.36
2019-05-06T03:43:02.794Z,99650.57
2019-05-06T03:45:13.136Z,99656.47
2019-05-06T03:47:23.467Z,99647.17
2019-05-06T03:49:33.820Z,99644.96
2019-05-06T03:51:42.758Z,99644.42
2019-05-06T03:53:48.348Z,99642.05
2019-05-06T03:55:56.663Z,99648.50
2019-05-06T03:58:04.400Z,99649.47
2019-05-06T04:00:15.982Z,99648.13
2019-05-06T04:02:24.050Z,99658.72
2019-05-06T04:04:33.103Z,99652.28
2019-05-06T04:06:43.599Z,99653.12
2019-05-06T04:08:52.857Z,99648.78
2019-05-06T04:11:02.960Z,99651.44
2019-05-06T04:13:13.497Z,99647.52
2019-05-06T04:15:19.330Z,99648.07
2019-05-06T04:17:37.301Z,99647.80
2019-05-06T04:19:53.467Z,99648.77
2019-05-06T04:22:23.382Z,99650.97
2019-05-06T04:24:53.939Z,99645.78
2019-05-06T04:27:34.757Z,99642.42
2019-05-06T04:29:42.868Z,99645.50
2019-05-06T04:31:53.698Z,99649.47
2019-05-06T04:34:09.889Z,99649.38
2019-05-06T04:36:07.399Z,99657.64
2019-05-06T04:38:14.285Z,99653.30
2019-05-06T04:40:23.895Z,99657.40
2019-05-06T04:42:30.405Z,99663.80
2019-05-06T04:44:37.950Z,99661.61
2019-05-06T04:46:44.660Z,99662.08
2019-05-06T04:48:53.606Z,99658.71
2019-05-06T04:50:59.356Z,99655.80
2019-05-06T04:53:06.105Z,99653.28
2019-05-06T04:55:14.219Z,99656.88
2019-05-06T04:57:23.872Z,99659.71
2019-05-06T04:59:29.352Z,99663.00
2019-05-06T05:01:35.871Z,99661.14
2019-05-06T05:03:42.865Z,99648.87
2019-05-06T05:05:49.519Z,99655.91
2019-05-06T05:07:56.097Z,99651.66
2019-05-06T05:10:07.684Z,99643.00
2019-05-06T05:12:19.702Z,99641.65
2019-05-06T05:14:33.704Z,99638.98
2019-05-06T05:16:42.157Z,99638.57
2019-05-06T05:18:50.437Z,99642.70
2019-05-06T05:20:57.011Z,99643.08
2019-05-06T05:23:03.477Z,99636.63
2019-05-06T05:25:12.229Z,99636.36
2019-05-06T05:27:18.722Z,99634.70
2019-05-06T05:29:25.250Z,99641.38
2019-05-06T05:31:33.236Z,99635.86
2019-05-06T05:33:42.153Z,99633.05
2019-05-06T05:35:47.955Z,99637.13
2019-05-06T05:37:54.668Z,99640.78
2019-05-06T05:40:03.027Z,99643.52
2019-05-06T05:42:12.359Z,99641.23
2019-05-06T05:44:22.645Z,99643.64
2019-05-06T05:46:28.736Z,99646.68
2019-05-06T05:48:48.523Z,99638.43
2019-05-06T05:50:55.482Z,99643.91
2019-05-06T05:53:03.067Z,99646.44
2019-05-06T05:55:09.655Z,99650.50
2019-05-06T05:57:17.579Z,99646.14
2019-05-06T05:59:25.169Z,99649.20
2019-05-06T06:01:32.621Z,99636.19
2019-05-06T06:03:39.358Z,99646.02
2019-05-06T06:05:45.810Z,99643.39
2019-05-06T06:07:53.063Z,99650.31
2019-05-06T06:10:02.674Z,99656.30
2019-05-06T06:12:12.036Z,99648.03
2019-05-06T06:14:33.234Z,99642.20
2019-05-06T06:16:42.277Z,99645.28
2019-05-06T06:19:07.123Z,99657.16
2019-05-06T06:21:21.992Z,99653.36
2019-05-06T06:23:26.096Z,99644.53
2019-05-06T06:25:33.574Z,99651.30
2019-05-06T06:27:52.310Z,99640.92
2019-05-06T06:29:58.930Z,99646.58
2019-05-06T06:32:22.999Z,99653.02
2019-05-06T06:34:42.560Z,99643.98
2019-05-06T06:37:02.696Z,99642.44
2019-05-06T06:39:16.825Z,99638.41
2019-05-06T06:41:23.344Z,99641.59
2019-05-06T06:43:29.830Z,99638.53
2019-05-06T06:45:36.678Z,99644.34
2019-05-06T06:47:43.074Z,99643.73
2019-05-06T06:49:49.543Z,99643.60
2019-05-06T06:51:55.913Z,99636.14
2019-05-06T06:54:02.651Z,99624.70
2019-05-06T06:56:21.898Z,99617.71
2019-05-06T06:58:32.327Z,99612.56
2019-05-06T07:00:38.554Z,99618.02
2019-05-06T07:02:49.745Z,99620.25
2019-05-06T07:05:02.387Z,99612.59
2019-05-06T07:07:09.259Z,99615.45
2019-05-06T07:09:15.737Z,99619.22
2019-05-06T07:11:22.613Z,99615.39
2019-05-06T07:13:29.075Z,99597.89
2019-05-06T07:15:35.506Z,99601.33
2019-05-06T07:17:42.107Z,99596.05
2019-05-06T07:19:50.146Z,99605.57
2019-05-06T07:21:58.400Z,99598.33
2019-05-06T07:24:04.870Z,99590.68
2019-05-06T07:26:13.967Z,99591.02
2019-05-06T07:28:22.345Z,99583.25
2019-05-06T07:30:32.934Z,99580.75
2019-05-06T07:32:39.387Z,99590.18
2019-05-06T07:34:45.798Z,99594.10
2019-05-06T07:36:52.654Z,99586.57
2019-05-06T07:38:59.173Z,99574.34
2019-05-06T07:41:14.447Z,99583.34
2019-05-06T07:43:36.412Z,99590.64
2019-05-06T07:45:47.124Z,99589.03
2019-05-06T07:47:55.249Z,99589.13
2019-05-06T07:50:02.392Z,99587.05
2019-05-06T07:52:09.204Z,99585.70
2019-05-06T07:54:15.598Z,99591.23
2019-05-06T07:56:22.577Z,99585.10
2019-05-06T07:58:29.181Z,99593.11
2019-05-06T08:00:36.102Z,99602.79
2019-05-06T08:02:42.635Z,99598.88
2019-05-06T08:04:49.112Z,99603.63
2019-05-06T08:06:55.523Z,99601.25
2019-05-06T08:09:03.189Z,99593.59
2019-05-06T08:11:12.362Z,99598.84
2019-05-06T08:13:19.196Z,99590.98
2019-05-06T08:15:25.646Z,99597.38
2019-05-06T08:17:33.831Z,99586.78
2019-05-06T08:19:42.268Z,99596.06
2019-05-06T08:21:52.062Z,99592.06
2019-05-06T08:23:58.528Z,99586.19
2019-05-06T08:26:12.467Z,99584.78
2019-05-06T08:28:13.416Z,99583.62
2019-05-06T08:30:20.109Z,99584.89
2019-05-06T08:32:26.581Z,99578.09
2019-05-06T08:34:34.161Z,99581.44
2019-05-06T08:36:42.595Z,99581.03
2019-05-06T08:38:58.809Z,99583.78
2019-05-06T08:41:05.367Z,99574.66
2019-05-06T08:43:13.681Z,99573.38
2019-05-06T08:45:21.968Z,99564.94
2019-05-06T08:47:28.366Z,99565.41
2019-05-06T08:49:36.381Z,99563.66
2019-05-06T08:52:02.590Z,99581.60
2019-05-06T08:54:22.566Z,99568.45
2019-05-06T08:56:28.386Z,99570.08
2019-05-06T08:58:47.365Z,99568.31
2019-05-06T09:01:03.074Z,99571.59
2019-05-06T09:03:09.384Z,99559.52
2019-05-06T09:05:15.871Z,99553.20
2019-05-06T09:07:23.911Z,99561.88
2019-05-06T09:09:32.488Z,99548.41
2019-05-06T09:11:39.290Z,99558.92
2019-05-06T09:13:45.672Z,99556.14
2019-05-06T09:15:52.966Z,99552.84
2019-05-06T09:17:59.370Z,99546.30
2019-05-06T09:20:07.167Z,99543.52
2019-05-06T09:22:13.627Z,99536.44
2019-05-06T09:24:20.101Z,99545.35
2019-05-06T09:26:43.283Z,99537.70
2019-05-06T09:28:53.107Z,99549.46
2019-05-06T09:31:02.245Z,99547.27
2019-05-06T09:33:09.327Z,99535.41
2019-05-06T09:35:15.788Z,99534.88
2019-05-06T09:37:24.079Z,99546.83
2019-05-06T09:39:32.240Z,99540.39
2019-05-06T09:41:39.222Z,99535.59
2019-05-06T09:43:45.682Z,99540.03
2019-05-06T09:45:52.945Z,99531.19
2019-05-06T09:48:05.451Z,99527.13
2019-05-06T09:50:14.652Z,99533.98
2019-05-06T09:52:23.193Z,99535.14
2019-05-06T09:54:33.693Z,99524.31
2019-05-06T09:56:42.772Z,99522.29
2019-05-06T09:58:49.408Z,99521.23
2019-05-06T10:00:57.451Z,99511.98
2019-05-06T10:03:04.577Z,99517.98
2019-05-06T10:05:12.010Z,99528.44
2019-05-06T10:07:18.543Z,99517.16
2019-05-06T10:09:25.147Z,99514.41
2019-05-06T10:11:32.853Z,99511.34
2019-05-06T10:13:39.552Z,99512.41
2019-05-06T10:15:46.049Z,99510.28
2019-05-06T10:18:08.133Z,99510.95
2019-05-06T10:20:16.081Z,99501.08
2019-05-06T10:22:23.344Z,99503.74
2019-05-06T10:24:32.254Z,99502.62
2019-05-06T10:26:39.730Z,99513.69
2019-05-06T10:28:47.911Z,99506.23
2019-05-06T10:30:54.425Z,99497.95
2019-05-06T10:33:02.472Z,99510.64
2019-05-06T10:35:09.902Z,99506.61
2019-05-06T10:37:25.683Z,99507.94
2019-05-06T10:39:36.646Z,99507.17
2019-05-06T10:41:47.657Z,99501.14
2019-05-06T10:44:02.969Z,99506.72
2019-05-06T10:46:09.629Z,99503.56
2019-05-06T10:48:16.114Z,99506.83
2019-05-06T10:50:22.996Z,99497.05
2019-05-06T10:52:33.212Z,99497.30
2019-05-06T10:54:39.261Z,99500.09
2019-05-06T10:56:54.602Z,99501.10
2019-05-06T10:59:02.282Z,99491.68
2019-05-06T11:01:12.771Z,99500.91
2019-05-06T11:03:23.778Z,99492.91
2019-05-06T11:05:32.398Z,99496.41
2019-05-06T11:07:38.359Z,99483.30
2019-05-06T11:09:44.781Z,99485.63
2019-05-06T11:11:51.155Z,99478.77
2019-05-06T11:13:57.567Z,99488.30
2019-05-06T11:16:04.083Z,99492.47
2019-05-06T11:18:13.264Z,99488.95
2019-05-06T11:20:19.018Z,99481.05
2019-05-06T11:22:25.388Z,99485.94
2019-05-06T11:24:32.627Z,99482.77
2019-05-06T11:26:39.275Z,99485.76
2019-05-06T11:28:47.362Z,99485.91
2019-05-06T11:30:56.420Z,99481.06
2019-05-06T11:33:04.776Z,99477.05
2019-05-06T11:35:13.252Z,99488.19
2019-05-06T11:37:24.033Z,99477.92
2019-05-06T11:39:32.139Z,99475.09
2019-05-06T11:41:38.756Z,99466.28
2019-05-06T11:43:45.221Z,99465.86
2019-05-06T11:45:52.130Z,99465.80
2019-05-06T11:47:58.950Z,99463.16
2019-05-06T11:50:09.306Z,99465.39
2019-05-06T11:52:16.785Z,99458.91
2019-05-06T11:54:24.508Z,99464.97
2019-05-06T11:56:32.701Z,99468.69
2019-05-06T11:58:48.039Z,99475.24
2019-05-06T12:00:54.274Z,99462.88
2019-05-06T12:03:02.352Z,99455.23
2019-05-06T12:05:09.259Z,99454.09
2019-05-06T12:07:16.281Z,99446.91
2019-05-06T12:09:23.970Z,99446.40
2019-05-06T12:11:30.378Z,99442.63
2019-05-06T12:13:38.248Z,99442.28
2019-05-06T12:15:44.819Z,99441.04
2019-05-06T12:17:53.304Z,99440.77
2019-05-06T12:19:59.297Z,99423.63
2019-05-06T12:22:05.677Z,99419.59
2019-05-06T12:24:12.314Z,99425.97
2019-05-06T12:26:20.290Z,99427.48
2019-05-06T12:28:26.665Z,99426.44
2019-05-06T12:30:33.073Z,99428.73
2019-05-06T12:32:43.176Z,99419.42
2019-05-06T12:34:49.270Z,99412.72
2019-05-06T12:36:57.316Z,99414.92
2019-05-06T12:39:18.413Z,99412.59
2019-05-06T12:41:23.993Z,99411.00
2019-05-06T12:43:30.173Z,99415.37
2019-05-06T12:45:38.274Z,99401.54
2019-05-06T12:47:46.367Z,99397.77
2019-05-06T12:49:53.325Z,99396.02
2019-05-06T12:52:00.081Z,99398.87
2019-05-06T12:54:06.488Z,99400.81
2019-05-06T12:56:13.039Z,99400.81
2019-05-06T12:58:21.068Z,99399.42
2019-05-06T13:00:29.416Z,99400.66
2019-05-06T13:02:36.047Z,99387.70
2019-05-06T13:04:51.332Z,99390.85
2019-05-06T13:06:52.215Z,99383.87
2019-05-06T13:09:04.154Z,99371.32
2019-05-06T13:11:08.630Z,99385.28
2019-05-06T13:13:15.015Z,99365.04
2019-05-06T13:15:24.482Z,99369.23
2019-05-06T13:17:32.897Z,99376.22
2019-05-06T13:19:39.392Z,99378.47
2019-05-06T13:21:45.865Z,99379.79
2019-05-06T13:24:04.661Z,99380.15
2019-05-06T13:26:12.670Z,99374.28
2019-05-06T13:28:22.458Z,99375.20
2019-05-06T13:30:28.629Z,99370.47
2019-05-06T13:32:36.644Z,99369.73
2019-05-06T13:34:43.126Z,99363.72
2019-05-06T13:36:53.027Z,99368.64
2019-05-06T13:39:13.479Z,99365.55
2019-05-06T13:41:06.451Z,99366.41
2019-05-06T13:43:13.219Z,99367.44
2019-05-06T13:45:22.037Z,99372.27
2019-05-06T13:47:32.151Z,99378.23
2019-05-06T13:49:42.998Z,99370.83
2019-05-06T13:52:04.520Z,99378.95
2019-05-06T13:54:15.780Z,99371.95
2019-05-06T13:56:20.269Z,99372.47
2019-05-06T13:58:27.442Z,99373.09
2019-05-06T14:00:35.722Z,99374.45
2019-05-06T14:02:44.011Z,99376.36
2019-05-06T14:04:52.721Z,99373.90
2019-05-06T14:06:58.765Z,99389.03
2019-05-06T14:09:27.185Z,99375.39
2019-05-06T14:11:18.737Z,99371.43
2019-05-06T14:13:25.155Z,99373.19
2019-05-06T14:15:32.644Z,99368.05
2019-05-06T14:17:39.056Z,99387.22
2019-05-06T14:19:45.472Z,99386.73
2019-05-06T14:21:52.422Z,99382.86
2019-05-06T14:23:59.052Z,99381.08
2019-05-06T14:26:20.109Z,99385.69
2019-05-06T14:28:39.984Z,99378.52
2019-05-06T14:30:53.749Z,99383.16
2019-05-06T14:33:00.162Z,99381.86
2019-05-06T14:35:07.830Z,99377.54
2019-05-06T14:37:14.283Z,99385.27
2019-05-06T14:39:24.865Z,99390.86
2019-05-06T14:41:38.008Z,99388.77
2019-05-06T14:43:44.408Z,99384.81
2019-05-06T14:45:52.801Z,99385.81
2019-05-06T14:47:58.907Z,99393.21
2019-05-06T14:50:08.249Z,99384.48
2019-05-06T14:52:14.728Z,99375.67
2019-05-06T14:54:22.120Z,99382.94
2019-05-06T14:56:33.229Z,99379.61
2019-05-06T14:58:39.697Z,99380.97
2019-05-06T15:00:46.085Z,99377.64
2019-05-06T15:02:53.301Z,99387.44
2019-05-06T15:05:02.737Z,99385.63
2019-05-06T15:07:09.448Z,99380.12
2019-05-06T15:09:15.895Z,99383.60
2019-05-06T15:11:22.823Z,99392.76
2019-05-06T15:13:32.003Z,99376.75
2019-05-06T15:15:37.763Z,99376.03
2019-05-06T15:17:44.244Z,99383.95
2019-05-06T15:19:52.563Z,99379.97
2019-05-06T15:21:58.874Z,99383.50
2019-05-06T15:24:05.427Z,99375.44
2019-05-06T15:26:12.331Z,99386.84
2019-05-06T15:28:22.600Z,99385.43
2019-05-06T15:30:39.580Z,99388.09
2019-05-06T15:32:45.970Z,99392.08
2019-05-06T15:34:59.713Z,99392.87
2019-05-06T15:37:12.979Z,99387.31
2019-05-06T15:39:19.041Z,99382.91
2019-05-06T15:41:25.438Z,99377.05
2019-05-06T15:43:33.358Z,99377.95
2019-05-06T15:45:39.802Z,99379.28
2019-05-06T15:47:49.168Z,99377.48
2019-05-06T15:49:55.758Z,99381.55
2019-05-06T15:52:03.603Z,99381.57
2019-05-06T15:54:10.475Z,99391.56
2019-05-06T15:56:16.876Z,99388.00
2019-05-06T15:58:23.337Z,99383.59
2019-05-06T16:00:29.798Z,99381.73
2019-05-06T16:02:36.267Z,99381.78
2019-05-06T16:04:43.051Z,99381.35
2019-05-06T16:06:49.431Z,99385.42
2019-05-06T16:08:55.979Z,99386.91
2019-05-06T16:11:02.970Z,99392.40
2019-05-06T16:13:09.633Z,99392.95
2019-05-06T16:15:16.409Z,99391.38
2019-05-06T16:17:23.850Z,99389.80
2019-05-06T16:19:33.061Z,99395.24
2019-05-06T16:21:42.162Z,99400.69
2019-05-06T16:23:54.707Z,99388.83
2019-05-06T16:25:59.463Z,99393.30
2019-05-06T16:28:05.927Z,99393.36
2019-05-06T16:30:15.205Z,99392.98
2019-05-06T16:32:22.075Z,99397.08
2019-05-06T16:34:28.498Z,99394.03
2019-05-06T16:36:34.950Z,99391.42
2019-05-06T16:38:42.819Z,99400.75
2019-05-06T16:40:49.380Z,99405.70
2019-05-06T16:42:55.921Z,99396.91
2019-05-06T16:45:06.781Z,99394.30
2019-05-06T16:47:12.337Z,99400.10
2019-05-06T16:49:18.792Z,99397.92
2019-05-06T16:51:25.171Z,99407.22
2019-05-06T16:53:34.821Z,99406.81
2019-05-06T16:55:44.065Z,99408.60
2019-05-06T16:57:58.067Z,99406.02
2019-05-06T17:00:08.919Z,99411.38
2019-05-06T17:02:17.005Z,99418.92
2019-05-06T17:04:23.324Z,99417.19
2019-05-06T17:06:32.963Z,99416.39
2019-05-06T17:08:39.566Z,99416.41
2019-05-06T17:10:46.169Z,99416.00
2019-05-06T17:12:53.680Z,99418.21
2019-05-06T17:15:00.410Z,99416.09
2019-05-06T17:17:06.807Z,99422.31
2019-05-06T17:19:13.370Z,99416.19
2019-05-06T17:21:22.265Z,99421.06
2019-05-06T17:23:29.076Z,99418.48
2019-05-06T17:25:35.668Z,99417.19
2019-05-06T17:27:43.501Z,99422.97
2019-05-06T17:29:51.686Z,99418.64
2019-05-06T17:31:59.746Z,99420.44
2019-05-06T17:34:14.123Z,99426.66
2019-05-06T17:36:26.524Z,99424.08
2019-05-06T17:38:35.183Z,99427.63
2019-05-06T17:40:42.884Z,99430.31
2019-05-06T17:42:49.516Z,99430.78
2019-05-06T17:44:55.927Z,99438.77
2019-05-06T17:47:16.471Z,99433.95
2019-05-06T17:49:27.766Z,99434.42
2019-05-06T17:51:42.555Z,99441.52
2019-05-06T17:53:53.769Z,99444.21
2019-05-06T17:56:01.825Z,99448.20
2019-05-06T17:58:08.417Z,99451.31
2019-05-06T18:00:16.778Z,99456.62
2019-05-06T18:02:25.073Z,99452.70
2019-05-06T18:04:34.447Z,99460.66
2019-05-06T18:06:42.389Z,99464.20
2019-05-06T18:08:48.862Z,99460.69
2019-05-06T18:10:55.425Z,99463.34
2019-05-06T18:13:03.157Z,99468.22
2019-05-06T18:15:10.091Z,99477.05
2019-05-06T18:17:16.575Z,99473.13
2019-05-06T18:19:23.024Z,99476.67
2019-05-06T18:21:29.481Z,99476.24
2019-05-06T18:23:35.956Z,99478.44
2019-05-06T18:25:43.050Z,99484.18
2019-05-06T18:27:49.797Z,99489.08
2019-05-06T18:30:04.337Z,99477.62
2019-05-06T18:32:04.439Z,99482.92
2019-05-06T18:34:12.835Z,99488.67
2019-05-06T18:36:19.747Z,99490.00
2019-05-06T18:38:26.301Z,99481.63
2019-05-06T18:40:33.335Z,99485.19
2019-05-06T18:42:39.816Z,99489.17
2019-05-06T18:44:46.215Z,99497.12
2019-05-06T18:46:54.130Z,99494.92
2019-05-06T18:49:02.552Z,99499.78
2019-05-06T18:51:08.977Z,99507.72
2019-05-06T18:53:18.078Z,99509.98
2019-05-06T18:55:24.549Z,99503.81
2019-05-06T18:57:32.798Z,99508.68
2019-05-06T18:59:39.280Z,99507.36
2019-05-06T19:01:45.628Z,99512.25
2019-05-06T19:03:53.733Z,99508.73
2019-05-06T19:06:02.192Z,99511.39
2019-05-06T19:08:12.323Z,99511.84
2019-05-06T19:10:34.717Z,99508.34
2019-05-06T19:12:41.730Z,99515.41
2019-05-06T19:14:48.302Z,99519.38
2019-05-06T19:16:55.417Z,99520.27
2019-05-06T19:19:05.804Z,99522.48
2019-05-06T19:21:13.279Z,99523.83
2019-05-06T19:23:19.278Z,99526.92
2019-05-06T19:25:26.575Z,99533.53
2019-05-06T19:27:33.677Z,99524.28
2019-05-06T19:29:40.246Z,99527.81
2019-05-06T19:31:46.626Z,99529.61
2019-05-06T19:33:53.043Z,99529.17
2019-05-06T19:35:59.498Z,99532.73
2019-05-06T19:38:07.043Z,99533.17
2019-05-06T19:40:14.142Z,99530.09
2019-05-06T19:42:22.551Z,99530.53
2019-05-06T19:44:29.249Z,99528.33
2019-05-06T19:46:37.269Z,99529.23
2019-05-06T19:48:43.793Z,99527.03
2019-05-06T19:50:52.237Z,99534.97
2019-05-06T19:52:58.377Z,99531.44
2019-05-06T19:55:07.006Z,99536.72
2019-05-06T19:57:15.929Z,99546.00
2019-05-06T19:59:22.974Z,99542.47
2019-05-06T20:01:29.437Z,99541.59
2019-05-06T20:03:36.097Z,99542.02
2019-05-06T20:05:54.218Z,99543.78
2019-05-06T20:08:12.379Z,99541.58
2019-05-06T20:10:37.770Z,99550.38
2019-05-06T20:12:58.488Z,99546.01
2019-05-06T20:14:52.565Z,99536.76
2019-05-06T20:16:59.096Z,99534.11
2019-05-06T20:19:05.914Z,99531.91
2019-05-06T20:21:12.368Z,99526.62
2019-05-06T20:23:18.763Z,99530.14
2019-05-06T20:25:26.635Z,99531.05
2019-05-06T20:27:33.011Z,99529.73
2019-05-06T20:29:39.475Z,99539.84
2019-05-06T20:31:48.682Z,99530.16
2019-05-06T20:33:55.140Z,99527.95
2019-05-06T20:36:01.527Z,99529.23
2019-05-06T20:38:08.025Z,99531.88
2019-05-06T20:40:14.905Z,99529.67
2019-05-06T20:42:22.258Z,99529.67
2019-05-06T20:44:28.668Z,99530.11
2019-05-06T20:46:35.068Z,99527.94
2019-05-06T20:48:42.197Z,99522.20
2019-05-06T20:50:48.760Z,99518.25
2019-05-06T20:52:55.151Z,99510.77
2019-05-06T20:55:02.928Z,99507.23
2019-05-06T20:57:09.599Z,99502.83
2019-05-06T20:59:15.987Z,99511.20
2019-05-06T21:01:22.386Z,99503.27
2019-05-06T21:03:28.814Z,99508.55
2019-05-06T21:05:35.204Z,99509.42
2019-05-06T21:07:43.242Z,99519.55
2019-05-06T21:09:49.801Z,99519.98
2019-05-06T21:11:56.422Z,99532.75
2019-05-06T21:14:03.134Z,99531.44
2019-05-06T21:16:09.562Z,99538.03
2019-05-06T21:18:15.940Z,99537.14
2019-05-06T21:20:22.399Z,99544.20
2019-05-06T21:22:28.940Z,99542.44
2019-05-06T21:24:38.804Z,99535.39
2019-05-06T21:26:46.454Z,99530.11
2019-05-06T21:28:53.195Z,99520.41
2019-05-06T21:30:59.637Z,99519.97
2019-05-06T21:33:06.027Z,99524.84
2019-05-06T21:35:12.748Z,99538.91
2019-05-06T21:37:19.129Z,99532.29
2019-05-06T21:39:25.659Z,99530.97
2019-05-06T21:41:32.723Z,99529.23
2019-05-06T21:43:46.960Z,99537.58
2019-05-06T21:45:47.490Z,99531.84
2019-05-06T21:47:53.924Z,99531.41
2019-05-06T21:50:00.304Z,99537.54
2019-05-06T21:52:06.812Z,99534.03
2019-05-06T21:54:13.289Z,99534.91
2019-05-06T21:56:19.663Z,99530.05
2019-05-06T21:58:26.052Z,99527.83
2019-05-06T22:00:49.469Z,99523.86
2019-05-06T22:02:56.196Z,99531.34
2019-05-06T22:05:02.883Z,99523.84
2019-05-06T22:07:09.430Z,99521.20
2019-05-06T22:09:15.988Z,99531.30
2019-05-06T22:11:24.363Z,99534.37
2019-05-06T22:13:32.542Z,99523.37
2019-05-06T22:15:38.974Z,99525.98
2019-05-06T22:17:45.428Z,99524.66
2019-05-06T22:19:52.459Z,99527.31
2019-05-06T22:22:03.554Z,99527.75
2019-05-06T22:24:12.061Z,99526.00
2019-05-06T22:26:18.198Z,99523.79
2019-05-06T22:28:24.652Z,99524.66
2019-05-06T22:30:32.849Z,99527.30
2019-05-06T22:32:46.589Z,99525.53
2019-05-06T22:34:53.101Z,99529.92
2019-05-06T22:36:59.548Z,99524.20
2019-05-06T22:39:07.679Z,99532.11
2019-05-06T22:41:15.735Z,99537.83
2019-05-06T22:43:22.180Z,99541.77
2019-05-06T22:45:28.660Z,99542.21
2019-05-06T22:47:35.051Z,99551.45
2019-05-06T22:49:41.450Z,99546.17
2019-05-06T22:51:47.866Z,99542.65
2019-05-06T22:53:54.395Z,99542.65
2019-05-06T22:56:03.153Z,99537.80
2019-05-06T22:58:11.966Z,99533.84
2019-05-06T23:00:25.734Z,99532.53
2019-05-06T23:02:45.964Z,99532.52
2019-05-06T23:04:54.032Z,99536.02
2019-05-06T23:07:04.447Z,99534.69
2019-05-06T23:09:10.265Z,99535.13
2019-05-06T23:11:16.838Z,99548.73
2019-05-06T23:13:23.406Z,99543.91
2019-05-06T23:15:29.972Z,99557.05
2019-05-06T23:17:36.375Z,99550.92
2019-05-06T23:19:42.981Z,99556.61
2019-05-06T23:21:49.418Z,99554.39
2019-05-06T23:23:55.827Z,99553.92
2019-05-06T23:26:19.072Z,99549.06
2019-05-06T23:28:25.520Z,99554.36
2019-05-06T23:30:33.402Z,99549.52
2019-05-06T23:32:42.086Z,99550.80
2019-05-06T23:34:48.186Z,99555.61
2019-05-06T23:37:02.810Z,99555.16
2019-05-06T23:40:05.891Z,99556.91
2019-05-06T23:43:08.164Z,99564.36
2019-05-06T23:46:09.202Z,99562.62
2019-05-06T23:49:12.996Z,99567.43
2019-05-06T23:52:13.901Z,99563.45
2019-05-06T23:55:14.717Z,99561.25
2019-05-06T23:57:22.567Z,99566.92
2019-05-06T23:59:28.563Z,99565.16
